createdAt,value
2023-01-20T00:00:22.383Z,80.95
2023-01-20T00:02:49.210Z,77.00
2023-01-20T00:05:16.223Z,71.50
2023-01-20T00:07:43.058Z,78.97
2023-01-20T00:10:10.465Z,71.03
2023-01-20T00:12:37.202Z,72.13
2023-01-20T00:15:04.488Z,80.05
2023-01-20T00:17:31.234Z,77.68
2023-01-20T00:19:58.992Z,78.63
2023-01-20T00:22:25.743Z,72.68
2023-01-20T00:24:52.506Z,74.82
2023-01-20T00:27:20.511Z,74.70
2023-01-20T00:29:47.398Z,65.88
2023-01-20T00:32:14.140Z,84.35
2023-01-20T00:34:40.856Z,80.00
2023-01-20T00:37:07.592Z,71.80
2023-01-20T00:39:34.350Z,74.78
2023-01-20T00:42:01.072Z,79.10
2023-01-20T00:44:27.832Z,71.50
2023-01-20T00:46:54.637Z,68.93
2023-01-20T00:49:21.491Z,69.28
2023-01-20T00:51:48.317Z,70.25
2023-01-20T00:54:15.111Z,74.40
2023-01-20T00:56:41.837Z,73.75
2023-01-20T00:59:10.331Z,73.47
2023-01-20T01:01:37.266Z,60.47
2023-01-20T01:04:04.226Z,65.35
2023-01-20T01:06:31.067Z,69.65
2023-01-20T01:08:57.765Z,71.80
2023-01-20T01:11:24.526Z,65.13
2023-01-20T01:13:51.266Z,67.20
2023-01-20T01:16:18.093Z,71.55
2023-01-20T01:18:44.951Z,62.78
2023-01-20T01:21:17.316Z,66.68
2023-01-20T01:23:44.398Z,64.55
2023-01-20T01:26:11.255Z,68.07
2023-01-20T01:28:38.193Z,64.65
2023-01-20T01:31:06.815Z,67.57
2023-01-20T01:33:33.924Z,75.85
2023-01-20T01:36:03.296Z,62.72
2023-01-20T01:38:30.375Z,62.88
2023-01-20T01:40:57.585Z,67.57
2023-01-20T01:43:29.165Z,67.05
2023-01-20T01:45:56.194Z,61.07
2023-01-20T01:48:23.938Z,74.10
2023-01-20T01:50:54.423Z,69.25
2023-01-20T01:53:21.608Z,67.45
2023-01-20T01:55:53.787Z,64.40
2023-01-20T01:58:24.866Z,69.93
2023-01-20T02:00:52.380Z,65.35
2023-01-20T02:03:20.080Z,66.57
2023-01-20T02:05:50.350Z,60.17
2023-01-20T02:08:17.515Z,70.80
2023-01-20T02:10:44.257Z,74.15
2023-01-20T02:13:11.554Z,67.22
2023-01-20T02:15:55.878Z,61.75
2023-01-20T02:18:31.791Z,72.57
2023-01-20T02:21:08.326Z,70.72
2023-01-20T02:23:41.150Z,70.35
2023-01-20T02:26:44.902Z,68.18
2023-01-20T02:29:47.193Z,72.35
2023-01-20T02:32:21.071Z,62.70
2023-01-20T02:34:59.457Z,71.03
2023-01-20T02:37:30.018Z,73.60
2023-01-20T02:40:14.723Z,63.15
2023-01-20T02:43:09.282Z,68.32
2023-01-20T02:45:56.390Z,63.53
2023-01-20T02:48:27.487Z,63.60
2023-01-20T02:51:03.367Z,75.80
2023-01-20T02:53:48.380Z,61.95
2023-01-20T02:56:16.897Z,67.10
2023-01-20T02:58:50.851Z,72.95
2023-01-20T03:01:25.462Z,68.18
2023-01-20T03:03:55.550Z,75.03
2023-01-20T03:06:27.405Z,61.83
2023-01-20T03:08:56.204Z,69.60
2023-01-20T03:11:23.142Z,66.70
2023-01-20T03:14:08.440Z,63.03
2023-01-20T03:16:35.572Z,73.13
2023-01-20T03:19:02.684Z,69.38
2023-01-20T03:21:29.936Z,75.53
2023-01-20T03:24:02.323Z,82.82
2023-01-20T03:28:58.965Z,69.78
2023-01-20T03:31:54.948Z,71.00
2023-01-20T03:34:24.917Z,66.63
2023-01-20T03:36:53.793Z,67.75
2023-01-20T03:39:21.240Z,74.70
2023-01-20T03:42:25.267Z,69.47
2023-01-20T03:45:04.922Z,69.32
2023-01-20T03:47:40.764Z,69.90
2023-01-20T03:50:33.683Z,61.63
2023-01-20T03:53:18.604Z,64.63
2023-01-20T03:56:09.738Z,65.25
2023-01-20T03:58:43.167Z,62.15
2023-01-20T04:01:18.780Z,73.88
2023-01-20T04:03:50.644Z,72.40
2023-01-20T04:06:20.316Z,65.78
2023-01-20T04:09:13.345Z,66.72
2023-01-20T04:11:40.206Z,71.47
2023-01-20T04:14:09.199Z,75.07
2023-01-20T04:16:36.954Z,63.97
2023-01-20T04:19:03.799Z,72.78
2023-01-20T04:21:35.952Z,63.22
2023-01-20T04:24:13.169Z,72.07
2023-01-20T04:26:40.089Z,70.95
2023-01-20T04:29:10.565Z,71.38
2023-01-20T04:31:39.799Z,65.35
2023-01-20T04:34:07.108Z,67.03
2023-01-20T04:36:33.883Z,70.43
2023-01-20T04:39:00.668Z,59.20
2023-01-20T04:41:27.516Z,61.00
2023-01-20T04:43:54.296Z,66.38
2023-01-20T04:46:21.279Z,65.45
2023-01-20T04:48:48.160Z,58.05
2023-01-20T04:51:15.323Z,67.13
2023-01-20T04:53:42.129Z,64.45
2023-01-20T04:56:13.105Z,66.80
2023-01-20T04:58:41.289Z,68.82
2023-01-20T05:01:09.213Z,67.70
2023-01-20T05:03:36.462Z,62.35
2023-01-20T05:06:03.364Z,69.20
2023-01-20T05:08:30.203Z,64.75
2023-01-20T05:10:57.038Z,64.00
2023-01-20T05:13:23.900Z,67.47
2023-01-20T05:15:50.737Z,65.63
2023-01-20T05:18:17.512Z,61.45
2023-01-20T05:20:48.971Z,67.82
2023-01-20T05:23:16.922Z,66.13
2023-01-20T05:25:50.465Z,61.15
2023-01-20T05:28:17.354Z,61.30
2023-01-20T05:30:44.314Z,67.28
2023-01-20T05:33:11.666Z,71.93
2023-01-20T05:35:39.107Z,61.33
2023-01-20T05:38:05.980Z,63.33
2023-01-20T05:40:32.851Z,69.80
2023-01-20T05:43:02.998Z,64.10
2023-01-20T05:45:30.755Z,56.38
2023-01-20T05:47:58.767Z,64.10
2023-01-20T05:50:26.812Z,74.38
2023-01-20T05:52:53.748Z,72.93
2023-01-20T05:55:21.119Z,61.40
2023-01-20T05:57:47.896Z,67.57
2023-01-20T06:00:15.070Z,75.45
2023-01-20T06:02:42.247Z,66.35
2023-01-20T06:05:09.280Z,61.42
2023-01-20T06:07:36.117Z,60.30
2023-01-20T06:10:03.213Z,67.60
2023-01-20T06:12:30.044Z,63.22
2023-01-20T06:14:56.814Z,66.85
2023-01-20T06:17:23.646Z,67.70
2023-01-20T06:19:50.457Z,64.22
2023-01-20T06:22:19.626Z,59.97
2023-01-20T06:24:46.586Z,66.38
2023-01-20T06:27:13.829Z,57.30
2023-01-20T06:29:40.765Z,68.35
2023-01-20T06:32:07.551Z,69.60
2023-01-20T06:34:34.408Z,71.45
2023-01-20T06:37:02.238Z,69.22
2023-01-20T06:39:29.211Z,70.68
2023-01-20T06:42:00.253Z,65.90
2023-01-20T06:44:27.409Z,67.13
2023-01-20T06:46:54.437Z,75.80
2023-01-20T06:49:21.419Z,71.68
2023-01-20T06:51:49.404Z,72.65
2023-01-20T06:54:16.771Z,67.43
2023-01-20T06:56:43.894Z,67.20
2023-01-20T06:59:11.905Z,67.65
2023-01-20T07:01:39.224Z,68.07
2023-01-20T07:04:06.738Z,63.55
2023-01-20T07:06:42.867Z,64.35
2023-01-20T07:09:11.868Z,72.70
2023-01-20T07:11:39.300Z,68.28
2023-01-20T07:14:06.853Z,68.18
2023-01-20T07:16:34.704Z,65.28
2023-01-20T07:19:01.559Z,68.07
2023-01-20T07:21:28.718Z,73.20
2023-01-20T07:23:55.656Z,68.75
2023-01-20T07:26:26.375Z,75.25
2023-01-20T07:28:53.319Z,70.00
2023-01-20T07:31:22.527Z,75.20
2023-01-20T07:33:54.305Z,70.10
2023-01-20T07:36:21.212Z,69.50
2023-01-20T07:38:49.402Z,70.75
2023-01-20T07:41:18.272Z,65.45
2023-01-20T07:43:46.515Z,65.35
2023-01-20T07:46:14.343Z,74.50
2023-01-20T07:48:41.799Z,67.53
2023-01-20T07:51:12.036Z,69.25
2023-01-20T07:53:46.746Z,69.25
2023-01-20T07:56:18.173Z,76.18
2023-01-20T07:58:45.489Z,72.70
2023-01-20T08:01:15.462Z,71.65
2023-01-20T08:03:43.875Z,73.00
2023-01-20T08:06:12.998Z,65.93
2023-01-20T08:08:40.125Z,68.47
2023-01-20T08:11:09.033Z,64.03
2023-01-20T08:13:35.935Z,70.93
2023-01-20T08:16:05.110Z,67.07
2023-01-20T08:18:32.590Z,59.78
2023-01-20T08:20:59.962Z,72.95
2023-01-20T08:23:26.907Z,59.33
2023-01-20T08:26:05.416Z,69.05
2023-01-20T08:28:37.188Z,71.75
2023-01-20T08:31:08.423Z,73.95
2023-01-20T08:33:35.845Z,65.65
2023-01-20T08:36:10.568Z,63.47
2023-01-20T08:38:38.494Z,68.43
2023-01-20T08:41:14.679Z,69.82
2023-01-20T08:43:42.395Z,63.22
2023-01-20T08:46:12.384Z,69.40
2023-01-20T08:48:40.497Z,67.03
2023-01-20T08:51:20.143Z,60.58
2023-01-20T08:53:47.415Z,67.93
2023-01-20T08:56:14.689Z,66.97
2023-01-20T08:58:41.935Z,64.35
2023-01-20T09:01:14.528Z,67.72
2023-01-20T09:03:45.015Z,66.97
2023-01-20T09:06:16.725Z,70.00
2023-01-20T09:08:43.608Z,62.08
2023-01-20T09:11:14.283Z,65.25
2023-01-20T09:13:41.861Z,67.38
2023-01-20T09:16:11.868Z,62.97
2023-01-20T09:18:38.645Z,71.40
2023-01-20T09:21:09.119Z,66.07
2023-01-20T09:23:38.641Z,64.63
2023-01-20T09:26:07.131Z,65.32
2023-01-20T09:28:34.465Z,70.45
2023-01-20T09:31:06.130Z,65.03
2023-01-20T09:33:36.119Z,60.22
2023-01-20T09:36:04.599Z,67.88
2023-01-20T09:38:50.015Z,68.38
2023-01-20T09:41:48.852Z,63.45
2023-01-20T09:44:30.580Z,68.43
2023-01-20T09:47:21.575Z,64.60
2023-01-20T09:50:38.494Z,74.53
2023-01-20T09:53:26.832Z,67.90
2023-01-20T09:55:59.696Z,65.03
2023-01-20T09:58:37.512Z,67.50
2023-01-20T10:01:18.126Z,73.97
2023-01-20T10:04:02.897Z,77.55
2023-01-20T10:06:51.347Z,73.47
2023-01-20T10:09:54.613Z,67.15
2023-01-20T10:12:24.197Z,75.63
2023-01-20T10:15:16.789Z,68.82
2023-01-20T10:17:57.144Z,64.97
2023-01-20T10:20:35.477Z,62.15
2023-01-20T10:23:11.097Z,70.57
2023-01-20T10:26:04.011Z,65.53
2023-01-20T10:31:04.343Z,63.45
2023-01-20T10:33:44.603Z,62.65
2023-01-20T10:36:21.485Z,59.13
2023-01-20T10:38:58.159Z,68.45
2023-01-20T10:41:46.951Z,61.30
2023-01-20T10:44:15.435Z,61.15
2023-01-20T10:46:57.508Z,62.97
2023-01-20T10:50:11.126Z,63.05
2023-01-20T10:52:58.731Z,60.85
2023-01-20T10:55:38.307Z,61.58
2023-01-20T10:58:39.284Z,63.70
2023-01-20T11:01:09.292Z,69.68
2023-01-20T11:03:40.892Z,61.10
2023-01-20T11:06:13.854Z,63.13
2023-01-20T11:08:41.028Z,58.78
2023-01-20T11:11:29.484Z,57.67
2023-01-20T11:13:57.510Z,62.22
2023-01-20T11:16:28.801Z,60.63
2023-01-20T11:19:07.645Z,52.28
2023-01-20T11:21:36.975Z,53.75
2023-01-20T11:24:28.688Z,53.72
2023-01-20T11:27:06.439Z,66.20
2023-01-20T11:29:41.214Z,56.00
2023-01-20T11:32:37.123Z,51.63
2023-01-20T11:35:21.402Z,58.38
2023-01-20T11:37:48.829Z,54.55
2023-01-20T11:40:25.320Z,57.72
2023-01-20T11:42:53.416Z,57.83
2023-01-20T11:45:35.579Z,57.88
2023-01-20T11:48:16.503Z,59.92
2023-01-20T11:50:56.317Z,54.53
2023-01-20T11:53:28.696Z,54.47
2023-01-20T11:56:00.969Z,50.40
2023-01-20T11:58:32.398Z,57.08
2023-01-20T12:01:05.200Z,47.20
2023-01-20T12:03:47.505Z,50.10
2023-01-20T12:06:29.218Z,49.90
2023-01-20T12:09:15.811Z,38.60
2023-01-20T12:12:20.051Z,46.60
2023-01-20T12:14:57.554Z,44.80
2023-01-20T12:17:39.313Z,46.17
2023-01-20T12:20:17.433Z,51.53
2023-01-20T12:22:59.050Z,48.00
2023-01-20T12:25:29.567Z,44.40
2023-01-20T12:28:21.607Z,46.40
2023-01-20T12:30:54.286Z,44.70
2023-01-20T12:33:42.712Z,44.35
2023-01-20T12:36:36.173Z,47.15
2023-01-20T12:39:18.047Z,53.83
2023-01-20T12:41:57.170Z,48.27
2023-01-20T12:44:26.556Z,53.67
2023-01-20T12:47:19.416Z,46.83
2023-01-20T12:53:01.989Z,54.10
2023-01-20T12:55:52.562Z,50.63
2023-01-20T12:58:43.568Z,47.35
2023-01-20T13:01:42.771Z,50.03
2023-01-20T13:04:12.664Z,52.28
2023-01-20T13:06:53.366Z,48.13
2023-01-20T13:10:02.028Z,51.72
2023-01-20T13:12:41.152Z,51.05
2023-01-20T13:15:32.936Z,46.80
2023-01-20T13:18:14.501Z,45.90
2023-01-20T13:20:45.544Z,50.53
2023-01-20T13:23:19.802Z,45.63
2023-01-20T13:25:47.713Z,48.50
2023-01-20T13:28:19.763Z,43.42
2023-01-20T13:30:51.309Z,40.92
2023-01-20T13:33:47.765Z,44.38
2023-01-20T13:36:14.781Z,39.13
2023-01-20T13:38:42.878Z,45.15
2023-01-20T13:41:10.875Z,44.25
2023-01-20T13:43:43.689Z,38.80
2023-01-20T13:46:15.190Z,39.63
2023-01-20T13:49:19.753Z,41.10
2023-01-20T13:51:48.092Z,41.78
2023-01-20T13:54:29.062Z,43.25
2023-01-20T13:57:23.250Z,37.90
2023-01-20T13:59:50.781Z,42.03
2023-01-20T14:02:23.830Z,35.00
2023-01-20T14:04:50.825Z,34.67
2023-01-20T14:07:29.973Z,39.10
2023-01-20T14:09:59.473Z,37.83
2023-01-20T14:12:26.471Z,36.78
2023-01-20T14:14:53.855Z,38.75
2023-01-20T14:17:24.570Z,40.63
2023-01-20T14:19:55.113Z,41.28
2023-01-20T14:22:27.313Z,40.40
2023-01-20T14:24:57.401Z,40.80
2023-01-20T14:27:28.326Z,43.28
2023-01-20T14:29:59.717Z,37.05
2023-01-20T14:32:28.488Z,41.17
2023-01-20T14:34:56.647Z,43.13
2023-01-20T14:37:37.373Z,42.10
2023-01-20T14:40:10.233Z,44.17
2023-01-20T14:42:39.828Z,39.50
2023-01-20T14:45:19.847Z,39.15
2023-01-20T14:47:47.351Z,43.75
2023-01-20T14:50:19.494Z,45.67
2023-01-20T14:52:46.811Z,41.15
2023-01-20T14:55:36.673Z,41.35
2023-01-20T14:58:17.596Z,48.88
2023-01-20T15:00:49.702Z,48.72
2023-01-20T15:03:21.965Z,45.63
2023-01-20T15:06:01.342Z,40.80
2023-01-20T15:08:34.404Z,38.88
2023-01-20T15:11:20.592Z,47.05
2023-01-20T15:13:53.719Z,38.88
2023-01-20T15:16:36.331Z,43.30
2023-01-20T15:19:16.223Z,39.60
2023-01-20T15:21:56.354Z,42.60
2023-01-20T15:24:30.746Z,44.67
2023-01-20T15:26:59.262Z,44.42
2023-01-20T15:29:34.499Z,47.67
2023-01-20T15:32:06.314Z,47.35
2023-01-20T15:34:33.458Z,65.15
2023-01-20T15:37:00.249Z,70.65
2023-01-20T15:39:31.082Z,86.60
2023-01-20T15:41:58.531Z,69.80
2023-01-20T15:44:26.498Z,63.13
2023-01-20T15:46:57.150Z,63.50
2023-01-20T15:49:25.595Z,63.35
2023-01-20T15:51:52.583Z,64.50
2023-01-20T15:54:19.469Z,63.67
2023-01-20T15:56:46.358Z,132.63
2023-01-20T15:59:17.924Z,128.18
2023-01-20T16:01:51.215Z,65.17
2023-01-20T16:04:18.197Z,59.15
2023-01-20T16:06:45.436Z,60.20
2023-01-20T16:09:29.980Z,55.78
2023-01-20T16:11:56.806Z,62.95
2023-01-20T16:14:23.704Z,75.05
2023-01-20T16:16:50.620Z,62.15
2023-01-20T16:19:18.529Z,60.42
2023-01-20T16:21:45.814Z,70.30
2023-01-20T16:24:13.045Z,70.47
2023-01-20T16:26:40.895Z,71.25
2023-01-20T16:29:09.350Z,78.95
2023-01-20T16:31:36.471Z,70.75
2023-01-20T16:34:04.367Z,76.05
2023-01-20T16:36:31.269Z,76.63
2023-01-20T16:38:58.056Z,80.05
2023-01-20T16:41:30.707Z,93.20
2023-01-20T16:43:58.463Z,97.45
2023-01-20T16:46:28.017Z,95.50
2023-01-20T16:48:59.371Z,95.22
2023-01-20T16:51:28.114Z,87.45
2023-01-20T16:53:56.180Z,89.45
2023-01-20T16:56:25.326Z,102.05
2023-01-20T16:58:54.534Z,103.35
2023-01-20T17:01:24.632Z,97.50
2023-01-20T17:03:58.589Z,120.15
2023-01-20T17:06:29.318Z,126.30
2023-01-20T17:08:58.427Z,101.68
2023-01-20T17:11:36.811Z,93.10
2023-01-20T17:14:06.789Z,68.57
2023-01-20T17:16:34.152Z,60.25
2023-01-20T17:19:01.520Z,54.78
2023-01-20T17:21:30.757Z,58.35
2023-01-20T17:24:03.649Z,50.60
2023-01-20T17:26:31.273Z,52.10
2023-01-20T17:29:03.809Z,52.08
2023-01-20T17:34:01.195Z,52.63
2023-01-20T17:36:29.583Z,52.58
2023-01-20T17:38:57.505Z,50.38
2023-01-20T17:41:24.242Z,53.38
2023-01-20T17:43:51.109Z,53.35
2023-01-20T17:46:20.669Z,60.80
2023-01-20T17:48:48.611Z,51.95
2023-01-20T17:51:20.447Z,61.30
2023-01-20T17:53:48.372Z,56.28
2023-01-20T17:56:16.923Z,60.25
2023-01-20T17:58:45.166Z,56.05
2023-01-20T18:01:24.288Z,51.50
2023-01-20T18:03:52.992Z,57.45
2023-01-20T18:06:21.880Z,54.13
2023-01-20T18:08:57.371Z,54.40
2023-01-20T18:11:27.129Z,56.67
2023-01-20T18:13:55.665Z,58.33
2023-01-20T18:16:24.371Z,70.10
2023-01-20T18:18:51.300Z,54.28
2023-01-20T18:21:20.821Z,64.10
2023-01-20T18:23:48.993Z,61.60
2023-01-20T18:26:18.664Z,62.15
2023-01-20T18:28:48.557Z,62.95
2023-01-20T18:31:18.085Z,65.70
2023-01-20T18:33:52.543Z,65.00
2023-01-20T18:36:25.098Z,58.88
2023-01-20T18:39:00.551Z,57.30
2023-01-20T18:41:29.918Z,68.75
2023-01-20T18:43:57.418Z,67.60
2023-01-20T18:46:25.805Z,60.08
2023-01-20T18:48:54.597Z,76.93
2023-01-20T18:51:29.663Z,67.32
2023-01-20T18:54:02.071Z,69.28
2023-01-20T18:58:57.038Z,102.50
2023-01-20T19:01:27.891Z,113.05
2023-01-20T19:03:56.640Z,107.43
2023-01-20T19:06:25.746Z,107.40
2023-01-20T19:08:53.010Z,100.07
2023-01-20T19:11:31.620Z,89.72
2023-01-20T19:13:59.166Z,87.60
2023-01-20T19:16:34.393Z,82.68
2023-01-20T19:19:04.081Z,87.80
2023-01-20T19:21:32.550Z,91.70
2023-01-20T19:24:02.963Z,75.85
2023-01-20T19:26:29.746Z,80.30
2023-01-20T19:29:02.602Z,75.05
2023-01-20T19:31:36.450Z,79.97
2023-01-20T19:34:03.349Z,84.47
2023-01-20T19:36:30.632Z,81.25
2023-01-20T19:38:58.051Z,84.75
2023-01-20T19:41:27.855Z,74.38
2023-01-20T19:43:57.287Z,86.30
2023-01-20T19:46:29.301Z,83.05
2023-01-20T19:48:57.953Z,71.15
2023-01-20T19:51:25.419Z,79.97
2023-01-20T19:53:58.113Z,76.38
2023-01-20T19:56:27.956Z,82.05
2023-01-20T19:58:55.151Z,84.22
2023-01-20T20:01:25.530Z,81.57
2023-01-20T20:03:54.394Z,78.53
2023-01-20T20:06:24.246Z,84.03
2023-01-20T20:08:52.143Z,78.95
2023-01-20T20:11:18.998Z,71.13
2023-01-20T20:13:45.777Z,74.95
2023-01-20T20:16:12.911Z,70.10
2023-01-20T20:18:39.790Z,67.97
2023-01-20T20:21:08.376Z,66.88
2023-01-20T20:23:35.312Z,65.05
2023-01-20T20:26:02.213Z,65.43
2023-01-20T20:28:29.730Z,74.35
2023-01-20T20:30:56.660Z,62.80
2023-01-20T20:33:24.158Z,65.70
2023-01-20T20:35:51.356Z,72.70
2023-01-20T20:38:18.157Z,68.78
2023-01-20T20:40:44.912Z,74.70
2023-01-20T20:43:11.715Z,62.75
2023-01-20T20:45:38.569Z,62.60
2023-01-20T20:48:05.780Z,57.40
2023-01-20T20:50:32.661Z,67.18
2023-01-20T20:52:59.499Z,58.95
2023-01-20T20:55:26.343Z,54.15
2023-01-20T20:57:53.840Z,59.78
2023-01-20T21:00:23.513Z,52.30
2023-01-20T21:02:50.558Z,57.28
2023-01-20T21:05:18.984Z,59.72
2023-01-20T21:07:46.130Z,53.67
2023-01-20T21:10:15.725Z,50.40
2023-01-20T21:12:44.294Z,55.00
2023-01-20T21:15:12.597Z,45.90
2023-01-20T21:17:40.151Z,46.55
2023-01-20T21:20:07.938Z,49.78
2023-01-20T21:22:35.042Z,59.60
2023-01-20T21:25:01.872Z,52.22
2023-01-20T21:27:30.498Z,42.78
2023-01-20T21:29:57.280Z,47.67
2023-01-20T21:32:24.192Z,46.70
2023-01-20T21:34:51.069Z,49.35
2023-01-20T21:37:19.628Z,50.47
2023-01-20T21:39:46.435Z,48.05
2023-01-20T21:42:13.199Z,48.67
2023-01-20T21:44:42.512Z,53.13
2023-01-20T21:47:09.385Z,47.17
2023-01-20T21:49:54.541Z,51.88
2023-01-20T21:52:42.005Z,49.38
2023-01-20T21:55:16.308Z,56.08
2023-01-20T21:57:43.293Z,52.53
2023-01-20T22:00:11.009Z,50.53
2023-01-20T22:02:38.477Z,55.30
2023-01-20T22:05:05.775Z,46.60
2023-01-20T22:07:32.878Z,50.63
2023-01-20T22:10:00.019Z,49.55
2023-01-20T22:12:26.901Z,48.95
2023-01-20T22:14:53.681Z,49.63
2023-01-20T22:17:20.513Z,45.92
2023-01-20T22:19:47.354Z,52.08
2023-01-20T22:22:15.362Z,52.25
2023-01-20T22:24:42.521Z,48.97
2023-01-20T22:27:09.319Z,45.53
2023-01-20T22:29:36.092Z,41.30
2023-01-20T22:32:04.827Z,47.85
2023-01-20T22:34:31.707Z,55.35
2023-01-20T22:37:00.495Z,54.45
2023-01-20T22:39:28.098Z,54.67
2023-01-20T22:41:55.197Z,52.80
2023-01-20T22:44:21.976Z,52.92
2023-01-20T22:46:48.864Z,53.55
2023-01-20T22:49:15.679Z,53.80
2023-01-20T22:51:42.579Z,50.78
2023-01-20T22:54:10.791Z,49.80
2023-01-20T22:56:39.061Z,49.30
2023-01-20T22:59:06.289Z,44.70
2023-01-20T23:01:35.273Z,41.22
2023-01-20T23:04:04.587Z,43.88
2023-01-20T23:06:33.914Z,41.13
2023-01-20T23:09:02.955Z,43.42
2023-01-20T23:11:29.968Z,50.33
2023-01-20T23:13:56.752Z,40.20
2023-01-20T23:16:23.685Z,47.10
2023-01-20T23:18:53.561Z,44.60
2023-01-20T23:21:21.289Z,39.30
2023-01-20T23:23:54.528Z,40.67
2023-01-20T23:26:28.445Z,37.97
2023-01-20T23:28:56.424Z,44.97
2023-01-20T23:31:25.164Z,44.08
2023-01-20T23:33:54.270Z,46.33
2023-01-20T23:36:24.478Z,47.55
2023-01-20T23:38:54.259Z,40.80
2023-01-20T23:41:21.113Z,43.20
2023-01-20T23:43:47.924Z,42.85
2023-01-20T23:46:14.811Z,37.85
2023-01-20T23:48:41.752Z,48.40
2023-01-20T23:51:08.651Z,44.75
2023-01-20T23:53:38.359Z,43.45
2023-01-20T23:56:09.596Z,43.70
2023-01-20T23:58:36.414Z,38.83
